Time;durP1;ratioP1;P1;durP2;ratioP2;P2;SDS_P1;SDS_P2;PMS_P1;PMS_P2;Temp;Humidity;BMP_temperature;BMP_pressure;BME280_temperature;BME280_humidity;BME280_pressure;Samples;Min_cycle;Max_cycle;Signal;HPM_P1;HPM_P2
2023/04/28 00:00:10;;;;;;;;;;;;;;;19.47;38.96;95620.53;10233866;28;1913;-62
2023/04/28 00:05:11;;;;;;;;;;;;;;;19.44;38.96;95613.19;10235477;28;2079;-62
2023/04/28 00:10:11;;;;;;;;;;;;;;;19.44;38.96;95610.56;10212109;28;1935;-62
2023/04/28 00:15:12;;;;;;;;;;;;;;;19.45;38.86;95612.13;10243674;28;1923;-62
2023/04/28 00:20:12;;;;;;;;;;;;;;;19.44;38.73;95605.31;10232876;28;1898;-62
2023/04/28 00:25:13;;;;;;;;;;;;;;;19.43;38.78;95587.94;10238509;28;2034;-62
2023/04/28 00:30:13;;;;;;;;;;;;;;;19.42;38.93;95596.91;10243647;28;2100;-62
2023/04/28 00:35:13;;;;;;;;;;;;;;;19.43;38.81;95587.19;10239942;28;1975;-63
2023/04/28 00:40:14;;;;;;;;;;;;;;;19.41;38.97;95582.16;10233583;28;4937;-63
2023/04/28 00:45:14;;;;;;;;;;;;;;;19.41;38.95;95584.81;10227274;28;2074;-62
2023/04/28 00:50:14;;;;;;;;;;;;;;;19.39;38.93;95586.91;10230394;28;2009;-62
2023/04/28 00:55:15;;;;;;;;;;;;;;;19.40;38.79;95590.34;10233231;28;1966;-62
2023/04/28 01:00:15;;;;;;;;;;;;;;;19.39;38.89;95586.91;10233150;28;1917;-62
2023/04/28 01:05:16;;;;;;;;;;;;;;;19.38;38.93;95580.09;10243513;28;2001;-62
2023/04/28 01:10:16;;;;;;;;;;;;;;;19.38;38.90;95569.59;10242015;28;1938;-62
2023/04/28 01:15:17;;;;;;;;;;;;;;;19.37;39.02;95567.22;10244219;28;1958;-62
2023/04/28 01:20:17;;;;;;;;;;;;;;;19.36;38.78;95550.66;10235984;28;2001;-62
2023/04/28 01:25:17;;;;;;;;;;;;;;;19.37;38.74;95556.72;10238610;28;2156;-62
2023/04/28 01:30:18;;;;;;;;;;;;;;;19.35;38.98;95549.09;10237695;28;2012;-62
2023/04/28 01:35:18;;;;;;;;;;;;;;;19.35;38.77;95543.81;10237211;28;1967;-62
2023/04/28 01:40:18;;;;;;;;;;;;;;;19.35;38.89;95546.44;10242841;28;5012;-62
2023/04/28 01:45:18;;;;;;;;;;;;;;;19.32;38.84;95539.09;10231251;28;1972;-62
2023/04/28 01:50:19;;;;;;;;;;;;;;;19.34;38.93;95539.63;10230129;28;2120;-62
2023/04/28 01:55:20;;;;;;;;;;;;;;;19.34;38.84;95547.53;10241886;28;1907;-63
2023/04/28 02:00:20;;;;;;;;;;;;;;;19.33;38.84;95551.19;10235935;28;1990;-61
2023/04/28 02:05:20;;;;;;;;;;;;;;;19.32;38.92;95533.84;10240427;28;2101;-62
2023/04/28 02:10:21;;;;;;;;;;;;;;;19.31;38.73;95548.03;10240970;28;1938;-62
2023/04/28 02:15:21;;;;;;;;;;;;;;;19.32;38.95;95549.59;10217421;28;1935;-62
2023/04/28 02:20:21;;;;;;;;;;;;;;;19.31;38.94;95555.09;10220823;28;1951;-62
2023/04/28 02:25:21;;;;;;;;;;;;;;;19.31;38.72;95558.53;10232865;28;2027;-62
2023/04/28 02:30:22;;;;;;;;;;;;;;;19.30;38.73;95556.97;10230489;28;1929;-62
2023/04/28 02:35:22;;;;;;;;;;;;;;;19.29;38.69;95544.88;10234576;28;1982;-62
2023/04/28 02:40:22;;;;;;;;;;;;;;;19.30;38.85;95530.69;10230525;28;4914;-62
2023/04/28 02:45:23;;;;;;;;;;;;;;;19.29;38.86;95529.09;10234389;28;2117;-62
2023/04/28 02:50:23;;;;;;;;;;;;;;;19.28;38.81;95540.69;10232932;28;2050;-62
2023/04/28 02:55:23;;;;;;;;;;;;;;;19.29;38.89;95517.81;10234239;28;1919;-62
2023/04/28 03:00:24;;;;;;;;;;;;;;;19.28;38.85;95503.91;10232436;28;2512;-62
2023/04/28 03:05:24;;;;;;;;;;;;;;;19.27;38.77;95515.44;10237257;28;2078;-62
2023/04/28 03:10:24;;;;;;;;;;;;;;;19.26;38.88;95508.63;10225200;28;2068;-62
2023/04/28 03:15:25;;;;;;;;;;;;;;;19.26;38.89;95498.13;10237585;28;2114;-63
2023/04/28 03:20:25;;;;;;;;;;;;;;;19.26;38.69;95513.09;10230393;28;1907;-62
2023/04/28 03:25:26;;;;;;;;;;;;;;;19.25;38.84;95509.69;10232580;28;2029;-62
2023/04/28 03:30:26;;;;;;;;;;;;;;;19.25;38.81;95514.16;10236585;28;1937;-62
2023/04/28 03:35:26;;;;;;;;;;;;;;;19.25;38.82;95516.78;10237013;28;1921;-62
2023/04/28 03:40:27;;;;;;;;;;;;;;;19.23;38.75;95493.41;10236074;28;4980;-63
2023/04/28 03:45:27;;;;;;;;;;;;;;;19.23;38.87;95497.88;10235505;28;1976;-62
2023/04/28 03:50:27;;;;;;;;;;;;;;;19.23;38.76;95501.28;10235628;28;1937;-62
2023/04/28 03:55:27;;;;;;;;;;;;;;;19.22;38.84;95507.59;10229486;28;1998;-62
2023/04/28 04:00:28;;;;;;;;;;;;;;;19.24;38.87;95509.97;10229845;28;2031;-61
2023/04/28 04:05:28;;;;;;;;;;;;;;;19.23;38.88;95511.78;10229560;28;1983;-61
2023/04/28 04:10:28;;;;;;;;;;;;;;;19.24;38.84;95509.97;10229506;28;2038;-61
2023/04/28 04:15:29;;;;;;;;;;;;;;;19.28;38.86;95521.50;10236191;28;1946;-61
2023/04/28 04:20:29;;;;;;;;;;;;;;;19.32;38.87;95523.31;10238413;28;1920;-61
2023/04/28 04:25:29;;;;;;;;;;;;;;;19.38;38.59;95517.00;10236147;28;2008;-61
2023/04/28 04:30:30;;;;;;;;;;;;;;;19.45;38.75;95500.94;10235539;28;2106;-60
2023/04/28 04:35:30;;;;;;;;;;;;;;;19.53;38.59;95486.44;10229959;28;1979;-61
2023/04/28 04:40:30;;;;;;;;;;;;;;;19.60;38.61;95498.22;10225625;28;4981;-60
2023/04/28 04:45:31;;;;;;;;;;;;;;;19.69;38.51;95507.09;10228723;28;2019;-63
2023/04/28 04:50:31;;;;;;;;;;;;;;;19.77;38.41;95503.88;10234608;28;1978;-61
2023/04/28 04:55:31;;;;;;;;;;;;;;;19.84;38.33;95488.59;10235665;28;1937;-61
2023/04/28 05:00:32;;;;;;;;;;;;;;;19.91;38.37;95494.31;10242694;28;1960;-61
2023/04/28 05:05:33;;;;;;;;;;;;;;;19.96;38.14;95504.81;10237643;28;1983;-62
2023/04/28 05:10:33;;;;;;;;;;;;;;;20.02;38.10;95522.13;10245447;28;2075;-61
2023/04/28 05:15:34;;;;;;;;;;;;;;;20.07;38.08;95518.66;10241612;28;2061;-61
2023/04/28 05:20:34;;;;;;;;;;;;;;;20.13;37.96;95528.09;10245319;28;1946;-61
2023/04/28 05:25:34;;;;;;;;;;;;;;;20.15;37.94;95533.88;10245274;28;1969;-61
2023/04/28 05:30:34;;;;;;;;;;;;;;;20.18;37.82;95530.66;10239006;28;2028;-61
2023/04/28 05:35:35;;;;;;;;;;;;;;;20.20;37.70;95529.38;10217666;28;2062;-60
2023/04/28 05:40:35;;;;;;;;;;;;;;;20.23;37.79;95512.25;10236502;28;4941;-62
2023/04/28 05:45:35;;;;;;;;;;;;;;;20.25;37.74;95520.66;10236281;28;1942;-62
2023/04/28 05:50:35;;;;;;;;;;;;;;;20.30;37.95;95510.06;10244298;28;2027;-62
2023/04/28 05:55:36;;;;;;;;;;;;;;;20.31;37.96;95505.59;10246433;28;2115;-66
2023/04/28 06:00:36;;;;;;;;;;;;;;;20.31;37.88;95509.00;10246801;28;2011;-62
2023/04/28 06:05:36;;;;;;;;;;;;;;;20.33;37.81;95525.31;10227598;28;2012;-62
2023/04/28 06:10:37;;;;;;;;;;;;;;;20.34;37.80;95529.50;10238101;28;1979;-62
2023/04/28 06:15:37;;;;;;;;;;;;;;;20.37;38.01;95520.28;10237212;28;2010;-62
2023/04/28 06:20:37;;;;;;;;;;;;;;;20.38;38.10;95514.72;10236507;28;1955;-62
2023/04/28 06:25:37;;;;;;;;;;;;;;;20.40;37.96;95510.00;10235796;28;1960;-62
2023/04/28 06:30:38;;;;;;;;;;;;;;;20.39;37.92;95503.13;10237241;28;2164;-61
2023/04/28 06:35:38;;;;;;;;;;;;;;;20.42;37.97;95504.44;10233977;28;2007;-62
2023/04/28 06:40:39;;;;;;;;;;;;;;;20.45;37.75;95503.88;10235890;28;5009;-62
2023/04/28 06:45:40;;;;;;;;;;;;;;;20.43;37.95;95484.94;10237313;28;2052;-62
2023/04/28 06:50:40;;;;;;;;;;;;;;;20.43;37.80;95491.00;10234585;28;1886;-62
2023/04/28 06:55:41;;;;;;;;;;;;;;;20.43;37.74;95479.66;10228673;28;1962;-62
2023/04/28 07:00:41;;;;;;;;;;;;;;;20.46;37.74;95479.13;10231662;28;1978;-63
2023/04/28 07:05:41;;;;;;;;;;;;;;;20.44;37.97;95468.09;10234638;28;2181;-63
2023/04/28 07:10:42;;;;;;;;;;;;;;;20.46;37.91;95479.91;10242160;28;1782;-63
2023/04/28 07:15:42;;;;;;;;;;;;;;;20.45;37.71;95469.63;10247739;28;1414;-64
2023/04/28 07:20:42;;;;;;;;;;;;;;;20.42;37.74;95467.56;10226024;28;1543;-63
2023/04/28 07:25:43;;;;;;;;;;;;;;;20.43;37.92;95467.28;10231212;28;2333;-63
2023/04/28 07:30:43;;;;;;;;;;;;;;;20.36;38.10;95463.44;10234558;28;1867;-63
2023/04/28 07:35:43;;;;;;;;;;;;;;;20.36;37.82;95466.81;10235387;28;1973;-63
2023/04/28 07:40:44;;;;;;;;;;;;;;;20.31;37.99;95466.88;10235438;28;4984;-63
2023/04/28 07:45:47;;;;;;;;;;;;;;;20.29;38.01;95471.66;10215827;28;1974;-64
2023/04/28 07:50:47;;;;;;;;;;;;;;;20.27;37.95;95481.66;10232286;28;2044;-63
2023/04/28 07:55:48;;;;;;;;;;;;;;;20.21;38.31;95482.78;10234532;28;1996;-62
2023/04/28 08:00:48;;;;;;;;;;;;;;;20.22;38.35;95484.34;10231979;28;1980;-63
2023/04/28 08:05:48;;;;;;;;;;;;;;;20.17;38.30;95497.53;10225770;28;2062;-63
2023/04/28 08:10:49;;;;;;;;;;;;;;;20.14;38.23;95480.44;10235110;28;2058;-63
2023/04/28 08:15:49;;;;;;;;;;;;;;;20.13;38.25;95484.13;10227814;28;1919;-63
2023/04/28 08:20:50;;;;;;;;;;;;;;;20.09;38.33;95484.97;10231038;28;1891;-64
2023/04/28 08:25:50;;;;;;;;;;;;;;;20.08;38.38;95467.59;10234541;28;2557;-64
2023/04/28 08:30:51;;;;;;;;;;;;;;;20.05;38.36;95465.53;10231941;28;1834;-64
2023/04/28 08:35:51;;;;;;;;;;;;;;;20.02;38.33;95466.06;10237501;28;1930;-63
2023/04/28 08:40:51;;;;;;;;;;;;;;;20.01;38.34;95462.66;10240244;28;4975;-64
2023/04/28 08:45:52;;;;;;;;;;;;;;;19.98;38.43;95442.16;10238215;28;2175;-63
2023/04/28 08:50:53;;;;;;;;;;;;;;;19.95;38.51;95447.19;10234573;28;1896;-63
2023/04/28 08:55:55;;;;;;;;;;;;;;;19.94;38.50;95446.41;10241528;28;1918;-63
2023/04/28 09:00:55;;;;;;;;;;;;;;;19.93;38.47;95444.03;10239921;28;1934;-65
2023/04/28 09:05:56;;;;;;;;;;;;;;;19.93;38.69;95444.84;10237792;28;1910;-63
2023/04/28 09:11:07;;;;;;;;;;;;;;;19.92;38.79;95431.97;10239722;28;1923;-64
2023/04/28 09:16:07;;;;;;;;;;;;;;;19.91;38.99;95431.16;10225855;28;2390;-64
2023/04/28 09:21:08;;;;;;;;;;;;;;;19.90;39.17;95428.81;10237673;28;1988;-64
2023/04/28 09:26:08;;;;;;;;;;;;;;;19.88;39.46;95426.47;10225506;28;2073;-64
2023/04/28 09:31:20;;;;;;;;;;;;;;;19.89;39.39;95419.34;10235803;28;2064;-61
2023/04/28 09:36:29;;;;;;;;;;;;;;;19.89;39.28;95427.25;10242837;28;1833;-62
2023/04/28 09:41:37;;;;;;;;;;;;;;;19.85;39.01;95429.66;10233436;28;5037;-64
2023/04/28 09:46:37;;;;;;;;;;;;;;;19.83;39.04;95417.81;10238765;28;1911;-60
2023/04/28 09:51:38;;;;;;;;;;;;;;;19.82;39.06;95411.81;10241325;28;1939;-61
2023/04/28 09:56:38;;;;;;;;;;;;;;;19.81;38.93;95401.53;10252235;28;1828;-63
2023/04/28 10:01:39;;;;;;;;;;;;;;;19.80;39.07;95411.28;10240817;28;1774;-63
2023/04/28 10:06:39;;;;;;;;;;;;;;;19.79;39.22;95411.56;10249368;28;1922;-63
2023/04/28 10:11:39;;;;;;;;;;;;;;;19.81;39.92;95412.06;10243782;28;1970;-61
2023/04/28 10:16:40;;;;;;;;;;;;;;;19.82;40.00;95411.81;10238478;28;1989;-63
2023/04/28 10:21:42;;;;;;;;;;;;;;;19.83;40.32;95404.69;10235696;28;1891;-62
2023/04/28 10:27:02;;;;;;;;;;;;;;;19.83;40.53;95400.22;10233791;28;2004;-62
2023/04/28 10:32:18;;;;;;;;;;;;;;;19.85;40.33;95397.28;10238699;28;1853;-62
2023/04/28 10:37:18;;;;;;;;;;;;;;;19.83;40.53;95400.22;10238857;28;1876;-61
2023/04/28 10:42:37;;;;;;;;;;;;;;;19.85;40.59;95392.03;10231527;28;5086;-62
2023/04/28 10:47:56;;;;;;;;;;;;;;;19.83;40.76;95394.94;10236785;28;1895;-62
2023/04/28 10:52:56;;;;;;;;;;;;;;;19.82;40.62;95390.75;10232651;28;1904;-61
2023/04/28 10:58:25;;;;;;;;;;;;;;;19.82;40.46;95400.50;10238444;28;1840;-62
2023/04/28 11:03:38;;;;;;;;;;;;;;;19.82;40.83;95397.88;10230012;28;1957;-62
2023/04/28 11:08:38;;;;;;;;;;;;;;;19.78;40.72;95400.28;10234728;28;1914;-62
2023/04/28 11:13:38;;;;;;;;;;;;;;;19.77;40.70;95397.91;10239162;28;2309;-61
2023/04/28 11:18:55;;;;;;;;;;;;;;;19.77;40.74;95416.31;10232803;28;1884;-61
2023/04/28 11:23:56;;;;;;;;;;;;;;;19.76;40.88;95406.84;10236843;28;2045;-61
2023/04/28 11:28:57;;;;;;;;;;;;;;;19.75;40.68;95411.31;10234578;28;2036;-62
2023/04/28 11:34:01;;;;;;;;;;;;;;;19.75;40.71;95415.78;10233130;28;2130;-62
2023/04/28 11:39:03;;;;;;;;;;;;;;;19.73;40.66;95408.19;10232600;28;2002;-62
2023/04/28 11:44:13;;;;;;;;;;;;;;;19.72;40.67;95398.72;10237080;28;5037;-62
2023/04/28 11:49:14;;;;;;;;;;;;;;;19.75;40.61;95405.28;10233823;28;2177;-62
2023/04/28 11:54:18;;;;;;;;;;;;;;;19.71;40.67;95410.31;10234211;28;2029;-62
2023/04/28 11:59:23;;;;;;;;;;;;;;;19.71;40.73;95401.63;10229406;28;1917;-62
2023/04/28 12:04:26;;;;;;;;;;;;;;;19.71;40.89;95401.63;10229168;28;2055;-61
2023/04/28 12:09:26;;;;;;;;;;;;;;;19.69;40.80;95403.75;10227130;28;2264;-63
2023/04/28 12:14:27;;;;;;;;;;;;;;;19.69;40.99;95395.88;10243667;28;1837;-62
2023/04/28 12:19:27;;;;;;;;;;;;;;;19.67;40.89;95390.88;10237899;28;1972;-60
2023/04/28 12:24:27;;;;;;;;;;;;;;;19.70;40.79;95397.44;10239361;28;1985;-61
2023/04/28 12:29:38;;;;;;;;;;;;;;;19.67;40.65;95416.38;10247290;28;2125;-61
2023/04/28 12:34:38;;;;;;;;;;;;;;;19.68;40.80;95420.59;10252063;28;1883;-62
2023/04/28 12:39:39;;;;;;;;;;;;;;;19.67;40.77;95419.03;10237116;28;5090;-61
2023/04/28 12:44:39;;;;;;;;;;;;;;;19.65;40.93;95418.50;10240934;28;1969;-62
2023/04/28 12:49:40;;;;;;;;;;;;;;;19.64;41.04;95420.34;10239681;28;1959;-62
2023/04/28 12:54:45;;;;;;;;;;;;;;;19.66;40.95;95418.22;10233482;28;1915;-61
2023/04/28 12:59:47;;;;;;;;;;;;;;;19.65;41.08;95418.50;10242925;28;1852;-62
2023/04/28 13:04:47;;;;;;;;;;;;;;;19.64;40.97;95411.69;10239433;28;1981;-62
2023/04/28 13:09:47;;;;;;;;;;;;;;;19.64;40.97;95409.06;10240228;28;1877;-61
2023/04/28 13:14:48;;;;;;;;;;;;;;;19.62;40.75;95401.44;10237245;28;2339;-62
2023/04/28 13:19:48;;;;;;;;;;;;;;;19.62;40.83;95403.31;10231878;28;1963;-62
2023/04/28 13:24:48;;;;;;;;;;;;;;;19.62;40.90;95395.41;10245737;28;2018;-62
2023/04/28 13:29:48;;;;;;;;;;;;;;;19.62;41.22;95387.53;10239385;28;1970;-62
2023/04/28 13:34:49;;;;;;;;;;;;;;;19.62;41.19;95384.91;10227338;28;1903;-60
2023/04/28 13:39:49;;;;;;;;;;;;;;;19.62;41.22;95382.25;10234140;28;5097;-61
2023/04/28 13:44:50;;;;;;;;;;;;;;;19.66;41.13;95385.91;10231571;28;1936;-60
2023/04/28 13:49:50;;;;;;;;;;;;;;;19.69;41.35;95380.09;10235210;28;1880;-60
2023/04/28 13:54:50;;;;;;;;;;;;;;;19.74;41.03;95375.56;10238125;28;1920;-61
2023/04/28 13:59:51;;;;;;;;;;;;;;;19.75;41.10;95364.00;10231676;28;2100;-61
2023/04/28 14:04:52;;;;;;;;;;;;;;;19.80;40.80;95369.22;10220280;28;1970;-59
2023/04/28 14:09:52;;;;;;;;;;;;;;;19.86;40.81;95369.94;10231388;28;1895;-58
2023/04/28 14:14:53;;;;;;;;;;;;;;;19.91;40.62;95362.00;10234945;28;1959;-60
2023/04/28 14:19:53;;;;;;;;;;;;;;;19.96;40.32;95361.94;10239035;28;1898;-58
2023/04/28 14:24:53;;;;;;;;;;;;;;;20.03;40.14;95365.03;10239070;28;2139;-59
2023/04/28 14:29:53;;;;;;;;;;;;;;;20.05;40.20;95358.41;10235648;28;1892;-60
2023/04/28 14:34:54;;;;;;;;;;;;;;;20.12;40.32;95363.34;10237710;28;1943;-61
2023/04/28 14:39:54;;;;;;;;;;;;;;;20.15;40.20;95355.69;10237510;28;5082;-59
2023/04/28 14:44:54;;;;;;;;;;;;;;;20.18;40.12;95356.97;10240255;28;1911;-61
2023/04/28 14:49:54;;;;;;;;;;;;;;;20.23;40.18;95354.31;10232319;28;1960;-61
2023/04/28 14:54:55;;;;;;;;;;;;;;;20.27;40.25;95348.22;10232584;28;2597;-61
2023/04/28 14:59:56;;;;;;;;;;;;;;;20.30;40.15;95349.50;10241733;28;2004;-61
2023/04/28 15:04:56;;;;;;;;;;;;;;;20.35;40.21;95346.81;10240141;28;1978;-62
2023/04/28 15:09:58;;;;;;;;;;;;;;;20.38;40.12;95351.50;10232834;28;1942;-62
2023/04/28 15:14:58;;;;;;;;;;;;;;;20.41;40.03;95353.59;10230714;28;1832;-61
2023/04/28 15:19:58;;;;;;;;;;;;;;;20.43;40.15;95354.09;10234791;28;1879;-61
2023/04/28 15:24:58;;;;;;;;;;;;;;;20.47;40.17;95355.09;10227445;28;2091;-62
2023/04/28 15:29:59;;;;;;;;;;;;;;;20.50;40.35;95353.75;10235482;28;1955;-62
2023/04/28 15:35:00;;;;;;;;;;;;;;;20.54;40.20;95355.53;10235996;28;1832;-62
2023/04/28 15:40:01;;;;;;;;;;;;;;;20.56;40.25;95347.34;10242849;28;4992;-62
2023/04/28 15:45:01;;;;;;;;;;;;;;;20.58;41.18;95361.03;10221581;28;2000;-62
2023/04/28 15:50:02;;;;;;;;;;;;;;;20.63;41.04;95359.09;10242146;28;1883;-62
2023/04/28 15:55:02;;;;;;;;;;;;;;;20.63;40.57;95356.47;10244167;28;2956;-62
2023/04/28 16:00:03;;;;;;;;;;;;;;;20.64;40.35;95360.69;10244079;28;1888;-62
2023/04/28 16:05:04;;;;;;;;;;;;;;;20.64;40.72;95363.31;10244410;28;1944;-62
2023/04/28 16:10:04;;;;;;;;;;;;;;;20.64;40.39;95355.41;10236852;28;1906;-62
2023/04/28 16:15:05;;;;;;;;;;;;;;;20.59;40.73;95339.66;10220843;28;1838;-61
2023/04/28 16:20:06;;;;;;;;;;;;;;;20.58;40.90;95346.00;10233573;28;1878;-59
2023/04/28 16:25:06;;;;;;;;;;;;;;;20.59;40.60;95337.03;10235727;28;1981;-62
2023/04/28 16:30:07;;;;;;;;;;;;;;;20.58;40.77;95330.22;10233433;28;1824;-62
2023/04/28 16:35:12;;;;;;;;;;;;;;;20.59;41.10;95342.28;10239138;28;1885;-63
2023/04/28 16:40:13;;;;;;;;;;;;;;;20.58;40.63;95335.47;10234355;28;5264;-62
2023/04/28 16:45:14;;;;;;;;;;;;;;;20.55;41.11;95328.13;10235922;28;1964;-59
2023/04/28 16:50:14;;;;;;;;;;;;;;;20.52;41.68;95323.44;10231310;28;2134;-60
2023/04/28 16:55:15;;;;;;;;;;;;;;;20.49;41.69;95325.84;10233440;28;1883;-59
2023/04/28 17:00:15;;;;;;;;;;;;;;;20.45;41.77;95335.38;10238544;28;1884;-61
2023/04/28 17:05:16;;;;;;;;;;;;;;;20.44;41.73;95329.34;10231101;28;1973;-60
2023/04/28 17:10:16;;;;;;;;;;;;;;;20.44;41.62;95316.19;10240675;28;1876;-62
2023/04/28 17:15:16;;;;;;;;;;;;;;;20.41;41.76;95292.25;10243783;28;1841;-61
2023/04/28 17:20:18;;;;;;;;;;;;;;;20.37;42.00;95273.59;10244064;28;2011;-59
2023/04/28 17:25:21;;;;;;;;;;;;;;;20.35;41.66;95273.13;10239445;28;1969;-59
2023/04/28 17:30:21;;;;;;;;;;;;;;;20.35;41.78;95275.75;10239030;28;1988;-60
2023/04/28 17:35:21;;;;;;;;;;;;;;;20.32;41.81;95297.34;10223000;28;2032;-60
2023/04/28 17:40:25;;;;;;;;;;;;;;;20.33;41.55;95301.56;10234826;28;1872;-60
2023/04/28 17:45:25;;;;;;;;;;;;;;;20.33;42.53;95316.56;10217224;28;2074;-61
2023/04/28 17:50:26;;;;;;;;;;;;;;;20.38;42.91;95327.81;10234998;28;2134;-61
2023/04/28 17:55:26;;;;;;;;;;;;;;;20.43;44.00;95288.28;10231387;28;2036;-61
2023/04/28 18:00:27;;;;;;;;;;;;;;;20.46;44.08;95305.34;10234829;28;1955;-60
2023/04/28 18:05:28;;;;;;;;;;;;;;;20.49;45.09;95310.84;10246403;28;2035;-61
2023/04/28 18:10:28;;;;;;;;;;;;;;;20.50;45.31;95328.22;10235729;28;1851;-62
2023/04/28 18:15:29;;;;;;;;;;;;;;;20.52;45.14;95338.44;10232262;28;1914;-61
2023/04/28 18:20:29;;;;;;;;;;;;;;;20.50;45.19;95338.75;10234364;28;1890;-61
2023/04/28 18:25:31;;;;;;;;;;;;;;;20.49;45.39;95379.28;10241020;28;1973;-61
2023/04/28 18:35:37;;;;;;;;;;;;;;;20.46;44.89;95374.59;10225009;28;1888;-61
2023/04/28 18:40:37;;;;;;;;;;;;;;;20.45;45.47;95394.06;10222569;28;4937;-62
2023/04/28 18:45:39;;;;;;;;;;;;;;;20.43;45.05;95398.84;10234155;28;1938;-62
2023/04/28 18:50:39;;;;;;;;;;;;;;;20.40;44.81;95467.06;10233891;28;1890;-62
2023/04/28 18:55:40;;;;;;;;;;;;;;;20.38;44.67;95477.84;10235775;28;1955;-61
2023/04/28 19:00:41;;;;;;;;;;;;;;;20.35;44.76;95425.00;10232017;28;1907;-61
2023/04/28 19:05:42;;;;;;;;;;;;;;;20.34;45.07;95429.47;10242943;28;1946;-61
2023/04/28 19:10:42;;;;;;;;;;;;;;;20.32;45.08;95468.44;10228397;28;1885;-61
2023/04/28 19:15:42;;;;;;;;;;;;;;;20.32;44.90;95468.44;10243342;28;1522;-61
2023/04/28 19:20:43;;;;;;;;;;;;;;;20.30;44.92;95475.84;10244389;28;1457;-61
2023/04/28 19:25:43;;;;;;;;;;;;;;;20.31;45.22;95481.91;10234219;28;1958;-62
2023/04/28 19:30:43;;;;;;;;;;;;;;;20.30;44.82;95470.56;10225609;28;1836;-62
2023/04/28 19:35:44;;;;;;;;;;;;;;;20.29;44.61;95479.53;10229705;28;1876;-62
2023/04/28 19:40:44;;;;;;;;;;;;;;;20.27;44.65;95497.47;10230102;28;4986;-61
2023/04/28 19:45:45;;;;;;;;;;;;;;;20.27;44.66;95516.69;10238923;28;1914;-60
2023/04/28 19:50:45;;;;;;;;;;;;;;;20.24;44.94;95513.78;10243822;28;1896;-61
2023/04/28 19:55:46;;;;;;;;;;;;;;;20.24;44.55;95474.31;10226734;28;1832;-61
2023/04/28 20:00:46;;;;;;;;;;;;;;;20.24;44.55;95456.69;10221397;28;2041;-62
2023/04/28 20:05:48;;;;;;;;;;;;;;;20.21;44.55;95467.00;10221124;28;1997;-61
2023/04/28 20:10:48;;;;;;;;;;;;;;;20.20;44.56;95460.94;10232799;28;2040;-60
2023/04/28 20:15:49;;;;;;;;;;;;;;;20.19;44.41;95437.50;10234305;28;2125;-61
2023/04/28 20:20:51;;;;;;;;;;;;;;;20.18;44.64;95444.59;10228816;28;1843;-61
2023/04/28 20:25:52;;;;;;;;;;;;;;;20.17;44.19;95440.38;10227748;28;2084;-62
2023/04/28 20:30:52;;;;;;;;;;;;;;;20.18;44.37;95446.44;10246276;28;2043;-61
2023/04/28 20:35:52;;;;;;;;;;;;;;;20.16;44.38;95441.47;10238177;28;2398;-63
2023/04/28 20:40:52;;;;;;;;;;;;;;;20.15;44.23;95424.09;10246519;28;4813;-62
2023/04/28 20:45:53;;;;;;;;;;;;;;;20.12;44.11;95421.25;10245409;28;1915;-61
2023/04/28 20:50:54;;;;;;;;;;;;;;;20.10;43.90;95428.63;10223251;28;1824;-61
2023/04/28 20:55:54;;;;;;;;;;;;;;;20.11;44.04;95425.72;10233514;28;1765;-62
2023/04/28 21:00:55;;;;;;;;;;;;;;;20.10;44.25;95423.38;10226192;28;1868;-63
2023/04/28 21:05:55;;;;;;;;;;;;;;;20.07;43.95;95424.69;10239578;28;2094;-62
2023/04/28 21:10:55;;;;;;;;;;;;;;;20.07;43.88;95432.59;10246832;28;1888;-61
2023/04/28 21:15:55;;;;;;;;;;;;;;;20.06;43.75;95446.03;10237710;28;1833;-61
2023/04/28 21:20:56;;;;;;;;;;;;;;;20.04;43.51;95443.69;10243898;28;1872;-61
2023/04/28 21:25:56;;;;;;;;;;;;;;;20.02;43.45;95439.75;10245121;28;1972;-61
2023/04/28 21:30:56;;;;;;;;;;;;;;;20.00;43.52;95434.78;10247205;28;2386;-60
2023/04/28 21:35:56;;;;;;;;;;;;;;;19.97;43.21;95424.03;10251095;28;1896;-61
2023/04/28 21:40:57;;;;;;;;;;;;;;;19.96;43.32;95418.00;10252486;28;4936;-61
2023/04/28 21:45:57;;;;;;;;;;;;;;;19.95;43.26;95421.66;10244584;28;1918;-61
2023/04/28 21:50:58;;;;;;;;;;;;;;;19.92;43.36;95426.69;10237170;28;1852;-61
2023/04/28 21:55:58;;;;;;;;;;;;;;;19.92;43.32;95431.97;10240294;28;1816;-62
2023/04/28 22:00:58;;;;;;;;;;;;;;;19.89;43.26;95437.75;10235746;28;1845;-61
2023/04/28 22:05:59;;;;;;;;;;;;;;;19.88;43.39;95441.47;10239384;28;1966;-61
2023/04/28 22:10:59;;;;;;;;;;;;;;;19.87;43.20;95437.25;10234400;28;2123;-61
2023/04/28 22:16:00;;;;;;;;;;;;;;;19.86;43.17;95443.59;10243749;28;1884;-61
2023/04/28 22:21:00;;;;;;;;;;;;;;;19.83;43.34;95429.13;10226975;28;1840;-60
2023/04/28 22:26:01;;;;;;;;;;;;;;;19.82;43.19;95418.91;10231204;28;2032;-61
2023/04/28 22:31:01;;;;;;;;;;;;;;;19.81;42.99;95422.56;10234278;28;1837;-61
2023/04/28 22:36:01;;;;;;;;;;;;;;;19.80;43.05;95413.13;10238619;28;1903;-61
2023/04/28 22:41:02;;;;;;;;;;;;;;;19.78;42.91;95410.78;10235009;28;4897;-61
2023/04/28 22:46:02;;;;;;;;;;;;;;;19.76;43.25;95401.59;10239243;28;1964;-61
2023/04/28 22:51:02;;;;;;;;;;;;;;;19.76;42.92;95404.22;10232789;28;1986;-61
2023/04/28 22:56:02;;;;;;;;;;;;;;;19.75;43.02;95397.38;10243045;28;2006;-62
2023/04/28 23:01:03;;;;;;;;;;;;;;;19.73;43.16;95386.34;10248268;28;1971;-61
2023/04/28 23:06:04;;;;;;;;;;;;;;;19.74;42.99;95382.69;10250674;28;1903;-60
2023/04/28 23:11:05;;;;;;;;;;;;;;;19.71;42.86;95378.75;10239892;28;1985;-61
2023/04/28 23:16:05;;;;;;;;;;;;;;;19.70;43.15;95371.91;10245927;28;2064;-60
2023/04/28 23:21:06;;;;;;;;;;;;;;;19.70;42.91;95385.06;10235664;28;2067;-60
2023/04/28 23:26:07;;;;;;;;;;;;;;;19.70;42.88;95377.16;10238449;28;2383;-60
2023/04/28 23:31:07;;;;;;;;;;;;;;;19.67;42.80;95383.00;10233940;28;1852;-60
2023/04/28 23:36:07;;;;;;;;;;;;;;;19.68;43.04;95383.78;10242482;28;2032;-61
2023/04/28 23:41:08;;;;;;;;;;;;;;;19.68;42.90;95375.91;10246317;28;4829;-62
2023/04/28 23:46:08;;;;;;;;;;;;;;;19.65;42.87;95371.19;10236504;28;1975;-61
2023/04/28 23:51:08;;;;;;;;;;;;;;;19.64;42.72;95354.63;10231242;28;1877;-61
2023/04/28 23:56:09;;;;;;;;;;;;;;;19.65;42.89;95350.16;10237825;28;1860;-61
